Home   Weather   Germany   Hoyerswerda   Past weeks
Flag for Germany

Past Weather in Hoyerswerda, Saxony, Germany — Yesterday and Last 2 Weeks

Currently: 72 °F. Passing clouds. (Weather station: Dresden-Klotzsche, Germany). See more current weather

Past Weather in Hoyerswerda — Graph

°F

Hoyerswerda Temperature Yesterday

Maximum temperature yesterday: 90 °F (at 12:20 pm)
Minimum temperature yesterday: 68 °F (at 4:20 am)
Average temperature yesterday: 79 °F

High & Low Weather Summary for the Past Weeks

 TemperatureHumidityPressure
High93 °F (Jun 19, 4:20 pm)100% (Jun 6, 6:50 am)30.30 "Hg (Jun 6, 6:50 am)
Low48 °F (Jun 14, 4:20 am)27% (Jun 17, 3:50 pm)29.71 "Hg (Jun 21, 12:50 am)
Average70 °F62%30.06 "Hg
* Reported Jun 6 6:20 am — Jun 21 6:50 am, Hoyerswerda. Weather by CustomWeather, © 2021

Note: Actual official high and low records may vary slightly from our data, if they occured in-between our weather recording intervals... More about our weather records

Hoyerswerda Weather History for the Previous 24 Hours

Scroll right to see more
 ConditionsComfort  
Time TempWeatherWind HumidityBarometerVisibility
6:50 am
Mon, Jun 21
70 °FSunny.3 mph78%29.71 "Hg10 mi
6:20 am70 °FPassing clouds.3 mph78%29.71 "HgN/A
5:50 am70 °FPassing clouds.3 mph78%29.71 "HgN/A
5:20 am70 °FPassing clouds.3 mph73%29.71 "HgN/A
4:50 am70 °FSunny.1 mph78%29.74 "Hg10 mi
4:20 am72 °FPassing clouds.15 mph73%29.77 "HgN/A
3:50 am73 °FClear.10 mph69%29.74 "Hg10 mi
3:20 am73 °FClear.7 mph74%29.74 "Hg10 mi
2:50 am73 °FPassing clouds.6 mph65%29.71 "HgN/A
2:20 am75 °FPassing clouds.7 mph61%29.71 "HgN/A
1:50 am75 °FClear.9 mph65%29.71 "Hg10 mi
1:20 am73 °FPassing clouds.6 mph69%29.71 "HgN/A
12:50 am73 °FClear.7 mph69%29.71 "Hg10 mi
12:20 am73 °FClear.5 mph69%29.74 "Hg10 mi
11:50 pm
Sun, Jun 20
75 °FClear.6 mph65%29.74 "Hg10 mi
11:20 pm75 °FPassing clouds.3 mph65%29.77 "HgN/A
10:50 pm75 °FClear.5 mph61%29.77 "Hg10 mi
10:20 pm77 °FClear.3 mph61%29.80 "Hg10 mi
9:50 pm77 °FClear.5 mph61%29.80 "Hg10 mi
9:20 pm79 °FSunny.2 mph58%29.77 "Hg10 mi
8:50 pm79 °FSunny.1 mph54%29.80 "Hg10 mi
8:20 pm81 °FSunny.1 mph51%29.80 "Hg10 mi
7:50 pm81 °FSunny.2 mph51%29.80 "Hg10 mi
7:20 pm82 °FPassing clouds.3 mph48%29.80 "HgN/A
6:50 pm82 °FSunny.1 mph45%29.80 "Hg10 mi
6:20 pm82 °FSunny.2 mph45%29.80 "Hg10 mi
5:50 pm82 °FSunny.6 mph48%29.80 "Hg10 mi
5:20 pm82 °FPassing clouds.7 mph51%29.80 "HgN/A
4:50 pm84 °FPassing clouds.8 mph48%29.80 "HgN/A
4:20 pm88 °FPassing clouds.7 mph46%29.83 "HgN/A
3:50 pm88 °FPassing clouds.6 mph49%29.83 "HgN/A
3:20 pm86 °FPassing clouds.7 mph49%29.83 "HgN/A
2:50 pm88 °FPassing clouds.6 mph46%29.83 "HgN/A
2:20 pm90 °FPassing clouds.9 mph43%29.83 "HgN/A
1:50 pm90 °FPassing clouds.9 mph43%29.83 "HgN/A
1:20 pm90 °FPassing clouds.10 mph43%29.83 "HgN/A
12:50 pm90 °FPassing clouds.8 mph41%29.83 "HgN/A
12:20 pm90 °FPassing clouds.7 mph38%29.83 "HgN/A
11:50 am88 °FPassing clouds.7 mph43%29.86 "HgN/A
11:20 am88 °FPassing clouds.8 mph43%29.86 "HgN/A
10:50 am86 °FSunny.12 mph43%29.86 "Hg10 mi
10:20 am84 °FPassing clouds.9 mph45%29.86 "HgN/A
9:50 am84 °FPassing clouds.7 mph48%29.86 "HgN/A
9:20 am82 °FSunny.8 mph51%29.86 "Hg10 mi
8:50 am81 °FSunny.9 mph51%29.86 "Hg10 mi
8:20 am79 °FSunny.9 mph54%29.86 "Hg10 mi
Weather by CustomWeather, © 2021

See weather overview